Time;durP1;ratioP1;P1;durP2;ratioP2;P2;SDS_P1;SDS_P2;PMS_P1;PMS_P2;Temp;Humidity;BMP_temperature;BMP_pressure;BME280_temperature;BME280_humidity;BME280_pressure;Samples;Min_cycle;Max_cycle;Signal;HPM_P1;HPM_P2
2021/04/15 00:01:02;;;;;;;6.55;2.40;;;22.10;44.90;;;;;;5055599;28;20534;-68
2021/04/15 00:03:31;;;;;;;4.38;1.92;;;22.20;45.90;;;;;;5054409;28;20053;-68
2021/04/15 00:06:09;;;;;;;7.30;2.30;;;22.40;45.70;;;;;;5056774;28;20032;-68
2021/04/15 00:08:37;;;;;;;8.07;2.08;;;22.40;45.10;;;;;;5046905;28;20024;-69
2021/04/15 00:11:04;;;;;;;5.85;3.00;;;22.50;44.30;;;;;;5055073;28;20083;-69
2021/04/15 00:13:37;;;;;;;6.10;2.10;;;22.60;44.20;;;;;;5059193;28;20365;-68
2021/04/15 00:16:06;;;;;;;6.20;1.70;;;22.70;44.90;;;;;;5055137;28;20028;-67
2021/04/15 00:18:34;;;;;;;5.63;1.77;;;22.80;43.40;;;;;;5050160;28;20021;-68
2021/04/15 00:21:03;;;;;;;9.60;2.10;;;22.90;44.10;;;;;;5054821;28;20033;-68
2021/04/15 00:23:31;;;;;;;7.53;1.77;;;23.10;43.60;;;;;;5051691;28;20578;-66
2021/04/15 00:25:59;;;;;;;5.60;2.00;;;23.20;43.10;;;;;;5051903;28;20029;-67
2021/04/15 00:28:26;;;;;;;8.18;2.08;;;23.30;42.70;;;;;;5049522;28;20025;-69
2021/04/15 00:30:54;;;;;;;4.50;2.30;;;23.50;42.60;;;;;;5055305;28;20027;-70
2021/04/15 00:33:21;;;;;;;3.95;1.95;;;23.50;42.90;;;;;;5056416;28;20052;-68
2021/04/15 00:35:50;;;;;;;6.05;1.95;;;23.50;43.00;;;;;;5055672;28;20025;-67
2021/04/15 00:38:19;;;;;;;6.72;1.90;;;23.40;43.20;;;;;;5055840;28;20024;-66
2021/04/15 00:40:49;;;;;;;7.55;2.22;;;23.70;43.50;;;;;;5055747;28;20035;-70
2021/04/15 00:43:18;;;;;;;5.25;1.67;;;23.70;43.80;;;;;;5056191;28;20102;-70
2021/04/15 00:45:47;;;;;;;6.28;2.03;;;23.80;42.60;;;;;;5050179;28;20047;-69
2021/04/15 00:48:38;;;;;;;9.07;1.58;;;23.90;41.70;;;;;;5055801;28;20028;-68
2021/04/15 00:51:07;;;;;;;3.60;1.65;;;23.90;41.70;;;;;;5055043;28;20067;-69
2021/04/15 00:53:50;;;;;;;4.75;1.95;;;24.00;41.40;;;;;;5054254;28;20467;-70
2021/04/15 00:56:18;;;;;;;5.07;1.80;;;24.10;42.40;;;;;;5054064;28;20487;-69
2021/04/15 00:58:46;;;;;;;10.50;6.80;;;24.20;43.00;;;;;;5056534;28;20020;-70
2021/04/15 01:01:13;;;;;;;13.75;8.50;;;24.30;41.90;;;;;;5053049;28;20580;-70
2021/04/15 01:03:41;;;;;;;5.00;1.73;;;24.50;39.70;;;;;;5054662;28;20039;-68
2021/04/15 01:06:09;;;;;;;4.53;1.58;;;24.50;39.90;;;;;;5054938;28;20345;-70
2021/04/15 01:08:37;;;;;;;3.58;1.75;;;24.40;39.80;;;;;;5052600;28;20418;-69
2021/04/15 01:11:42;;;;;;;5.13;1.80;;;24.40;40.20;;;;;;5053856;28;20028;-69
2021/04/15 01:14:18;;;;;;;3.53;1.35;;;24.50;39.00;;;;;;5051387;28;20048;-70
2021/04/15 01:17:10;;;;;;;4.05;1.73;;;24.60;38.60;;;;;;5054295;28;20497;-69
2021/04/15 01:20:05;;;;;;;3.97;1.60;;;24.70;39.50;;;;;;5051931;28;20132;-70
2021/04/15 01:22:50;;;;;;;5.80;1.77;;;24.90;39.40;;;;;;5054678;28;20770;-69
2021/04/15 01:25:28;;;;;;;5.53;1.92;;;24.90;38.40;;;;;;5049469;28;20020;-69
2021/04/15 01:28:09;;;;;;;6.55;3.70;;;25.00;39.20;;;;;;5029549;28;20035;-69
2021/04/15 01:30:48;;;;;;;14.73;12.77;;;25.20;38.50;;;;;;5059237;28;20345;-68
2021/04/15 01:33:28;;;;;;;8.30;3.45;;;25.50;37.80;;;;;;5048468;28;20025;-69
2021/04/15 01:36:05;;;;;;;4.07;2.03;;;25.30;37.70;;;;;;5060413;28;20044;-68
2021/04/15 01:38:43;;;;;;;5.38;2.45;;;25.40;38.70;;;;;;5054610;28;20107;-70
2021/04/15 01:41:36;;;;;;;11.45;2.75;;;25.40;37.20;;;;;;5035523;28;20452;-68
2021/04/15 01:44:15;;;;;;;8.05;2.20;;;25.40;36.90;;;;;;5055877;28;20021;-70
2021/04/15 01:46:43;;;;;;;9.07;3.10;;;25.30;38.30;;;;;;5058487;28;20502;-69
2021/04/15 01:49:12;;;;;;;9.73;1.73;;;25.20;38.60;;;;;;5057579;28;20295;-70
2021/04/15 01:51:46;;;;;;;7.15;1.80;;;25.30;38.50;;;;;;5056726;28;20208;-68
2021/04/15 01:54:32;;;;;;;7.20;1.65;;;25.40;38.00;;;;;;5055294;28;20112;-71
2021/04/15 01:57:09;;;;;;;5.55;1.80;;;25.50;38.30;;;;;;5054887;28;20052;-72
2021/04/15 01:59:42;;;;;;;3.05;1.77;;;25.70;36.90;;;;;;5053794;28;20794;-68
2021/04/15 02:02:24;;;;;;;6.80;1.58;;;25.80;37.80;;;;;;5052572;28;20136;-72
2021/04/15 02:05:13;;;;;;;4.18;1.35;;;26.00;36.30;;;;;;5055769;28;20024;-70
2021/04/15 02:07:45;;;;;;;3.88;1.35;;;26.30;36.60;;;;;;5056538;28;20032;-70
2021/04/15 02:10:15;;;;;;;6.18;1.58;;;26.30;36.10;;;;;;5030636;28;20494;-72
2021/04/15 02:12:46;;;;;;;4.47;1.58;;;26.30;35.70;;;;;;5057320;28;20441;-72
2021/04/15 02:15:23;;;;;;;4.30;1.50;;;26.50;35.80;;;;;;5055301;28;20406;-69
2021/04/15 02:17:53;;;;;;;6.85;1.88;;;26.40;35.90;;;;;;5056215;28;20024;-69
2021/04/15 02:20:25;;;;;;;5.15;1.67;;;26.30;36.90;;;;;;5056163;28;20029;-69
2021/04/15 02:23:06;;;;;;;3.00;1.55;;;26.40;35.70;;;;;;5054837;28;20483;-69
2021/04/15 02:25:47;;;;;;;6.60;1.60;;;26.50;36.10;;;;;;5046145;28;20368;-70
2021/04/15 02:28:27;;;;;;;6.38;1.35;;;26.70;36.10;;;;;;5054142;28;20048;-71
2021/04/15 02:31:13;;;;;;;3.97;1.58;;;27.10;35.00;;;;;;5054584;28;20017;-69
2021/04/15 02:33:43;;;;;;;3.60;1.60;;;27.20;34.30;;;;;;5051094;28;20024;-68
2021/04/15 02:36:12;;;;;;;7.00;2.05;;;27.30;34.40;;;;;;5057852;28;20016;-72
2021/04/15 02:38:53;;;;;;;3.53;1.40;;;27.00;34.60;;;;;;5049639;28;20473;-73
2021/04/15 02:41:28;;;;;;;2.80;1.40;;;26.90;35.40;;;;;;5049675;28;20063;-69
2021/04/15 02:44:17;;;;;;;2.63;1.58;;;26.90;36.20;;;;;;5047173;28;20024;-72
2021/04/15 02:46:53;;;;;;;4.20;1.67;;;27.10;36.10;;;;;;5066218;22;20240;-69
2021/04/15 02:49:24;;;;;;;5.53;1.73;;;27.20;36.10;;;;;;5067893;28;20463;-72
2021/04/15 02:52:02;;;;;;;4.53;1.70;;;27.00;35.10;;;;;;5068252;28;20046;-72
2021/04/15 02:54:31;;;;;;;5.18;1.55;;;27.00;34.40;;;;;;5070158;28;20533;-72
2021/04/15 02:57:20;;;;;;;3.75;1.73;;;27.00;36.20;;;;;;5069717;28;20052;-71
2021/04/15 02:59:58;;;;;;;7.95;1.60;;;26.80;35.40;;;;;;5066714;28;20086;-71
2021/04/15 03:02:32;;;;;;;4.95;1.27;;;26.80;36.40;;;;;;5071456;28;20021;-71
2021/04/15 03:05:10;;;;;;;6.50;2.03;;;26.50;35.20;;;;;;5072028;28;20028;-70
2021/04/15 03:07:41;;;;;;;2.85;1.15;;;26.50;36.10;;;;;;5069243;28;20096;-71
2021/04/15 03:10:19;;;;;;;5.40;1.27;;;26.30;35.50;;;;;;5070497;28;20024;-68
2021/04/15 03:13:00;;;;;;;9.30;1.77;;;26.10;36.70;;;;;;5063699;28;20102;-71
2021/04/15 03:15:37;;;;;;;6.95;1.83;;;25.70;37.00;;;;;;5062614;28;20608;-69
2021/04/15 03:18:34;;;;;;;4.50;1.63;;;25.60;36.20;;;;;;5063055;28;20031;-69
2021/04/15 03:21:19;;;;;;;5.25;2.90;;;25.50;37.10;;;;;;5019196;28;20033;-69
2021/04/15 03:24:09;;;;;;;6.60;2.95;;;25.40;37.70;;;;;;5069707;28;20059;-69
2021/04/15 03:26:49;;;;;;;5.20;2.30;;;25.50;38.20;;;;;;5069048;28;20016;-70
2021/04/15 03:29:31;;;;;;;4.65;2.55;;;25.60;37.20;;;;;;5067597;28;20036;-70
2021/04/15 03:32:20;;;;;;;6.82;1.80;;;26.20;37.30;;;;;;5049352;28;20025;-70
2021/04/15 03:34:58;;;;;;;5.13;1.75;;;26.60;36.30;;;;;;5068013;28;20028;-70
2021/04/15 03:37:50;;;;;;;3.65;1.30;;;27.00;35.20;;;;;;5071015;28;20058;-69
2021/04/15 03:40:21;;;;;;;3.80;1.40;;;27.30;35.70;;;;;;4365585;28;10000828;-69
2021/04/15 03:42:59;;;;;;;5.38;1.60;;;27.30;34.60;;;;;;5070158;28;20065;-69
2021/04/15 03:45:50;;;;;;;5.03;1.35;;;27.40;33.30;;;;;;5068903;28;20033;-71
2021/04/15 03:48:32;;;;;;;3.13;1.50;;;27.50;34.40;;;;;;5068181;28;20035;-71
2021/04/15 03:51:13;;;;;;;6.00;1.45;;;27.60;34.20;;;;;;5063225;28;20029;-70
2021/04/15 03:53:49;;;;;;;5.57;1.58;;;28.00;34.90;;;;;;5069129;28;20055;-71
2021/04/15 03:56:43;;;;;;;5.05;1.65;;;28.00;34.90;;;;;;5065715;28;20501;-71
2021/04/15 03:59:28;;;;;;;3.95;1.48;;;28.10;33.60;;;;;;5065977;28;20026;-71
2021/04/15 04:01:58;;;;;;;4.95;1.55;;;28.10;34.20;;;;;;5063125;28;20109;-69
2021/04/15 04:04:26;;;;;;;7.70;1.90;;;28.10;34.10;;;;;;5071792;28;20024;-73
2021/04/15 04:06:56;;;;;;;5.45;1.73;;;28.10;35.20;;;;;;5065865;28;20024;-72
2021/04/15 04:10:01;;;;;;;2.97;1.20;;;27.90;33.60;;;;;;5065011;28;20154;-71
2021/04/15 04:12:47;;;;;;;4.57;1.42;;;28.00;34.90;;;;;;5062227;28;20020;-71
2021/04/15 04:15:25;;;;;;;4.15;1.58;;;28.00;34.50;;;;;;5062792;28;20379;-72
2021/04/15 04:18:01;;;;;;;6.15;1.50;;;28.10;34.90;;;;;;5066417;28;20078;-72
2021/04/15 04:20:34;;;;;;;3.88;1.50;;;28.10;34.50;;;;;;5063181;28;20188;-72
2021/04/15 04:23:26;;;;;;;7.50;1.65;;;28.20;34.30;;;;;;5069044;28;20023;-69
2021/04/15 04:26:05;;;;;;;6.93;1.63;;;28.40;33.60;;;;;;5068032;28;20025;-72
2021/04/15 04:28:47;;;;;;;5.57;1.75;;;28.30;34.80;;;;;;5062295;28;20071;-71
2021/04/15 04:31:22;;;;;;;5.43;1.70;;;28.50;33.40;;;;;;5063285;28;20079;-70
2021/04/15 04:33:53;;;;;;;5.35;1.25;;;28.70;33.30;;;;;;5069305;28;20016;-69
2021/04/15 04:36:23;;;;;;;5.95;1.33;;;28.70;33.50;;;;;;5061019;28;20044;-71
2021/04/15 04:38:54;;;;;;;5.05;1.45;;;28.60;33.60;;;;;;5064836;28;20029;-71
2021/04/15 04:41:51;;;;;;;7.63;1.55;;;28.60;32.50;;;;;;5062624;28;20020;-71
2021/04/15 04:44:28;;;;;;;4.72;1.70;;;28.40;33.10;;;;;;5055860;28;20080;-72
2021/04/15 04:47:23;;;;;;;12.82;8.25;;;28.50;34.30;;;;;;5066199;28;20097;-70
2021/04/15 04:50:35;;;;;;;19.65;13.95;;;28.50;33.10;;;;;;5070289;28;20023;-69
2021/04/15 04:53:08;;;;;;;9.23;2.47;;;28.40;34.10;;;;;;5070226;28;20028;-69
2021/04/15 04:55:50;;;;;;;5.10;1.60;;;28.40;33.70;;;;;;5068205;28;20024;-70
2021/04/15 04:58:19;;;;;;;6.40;1.52;;;28.30;33.90;;;;;;5060801;28;20064;-70
2021/04/15 05:00:50;;;;;;;3.45;1.23;;;28.30;33.90;;;;;;5060887;28;20045;-70
2021/04/15 05:03:26;;;;;;;3.55;1.58;;;28.30;34.00;;;;;;5059391;28;20032;-65
2021/04/15 05:06:10;;;;;;;6.35;1.52;;;28.60;34.30;;;;;;5063008;28;20078;-68
2021/04/15 05:08:55;;;;;;;5.57;2.08;;;28.70;32.90;;;;;;5063108;28;20024;-68
2021/04/15 05:11:23;;;;;;;9.48;2.60;;;28.70;33.10;;;;;;5065269;28;20025;-68
2021/04/15 05:13:51;;;;;;;7.18;1.88;;;29.10;33.60;;;;;;5051314;28;20054;-69
2021/04/15 05:16:18;;;;;;;5.22;1.55;;;29.20;32.30;;;;;;5060079;28;20020;-73
2021/04/15 05:18:45;;;;;;;3.42;1.23;;;29.40;32.80;;;;;;5047190;28;20375;-69
2021/04/15 05:21:17;;;;;;;9.13;1.80;;;29.50;31.60;;;;;;5064636;28;20574;-70
2021/04/15 05:24:17;;;;;;;10.50;2.90;;;29.40;32.70;;;;;;5065368;28;20029;-70
2021/04/15 05:26:47;;;;;;;3.67;1.73;;;29.60;33.80;;;;;;5053007;28;20192;-69
2021/04/15 05:29:29;;;;;;;10.93;3.90;;;29.20;32.50;;;;;;5068172;28;20028;-72
2021/04/15 05:31:57;;;;;;;4.32;1.40;;;29.00;33.70;;;;;;5064144;28;20027;-74
2021/04/15 05:34:34;;;;;;;7.43;2.20;;;29.00;31.90;;;;;;5065319;28;20814;-69
2021/04/15 05:37:14;;;;;;;3.42;1.30;;;28.80;32.60;;;;;;5065264;28;20479;-71
2021/04/15 05:39:42;;;;;;;5.15;1.35;;;28.60;32.90;;;;;;5063083;28;20493;-72
2021/04/15 05:42:35;;;;;;;8.35;1.58;;;28.20;34.30;;;;;;5065510;28;20432;-68
2021/04/15 05:45:23;;;;;;;6.38;1.73;;;27.90;34.60;;;;;;5063044;28;20048;-70
2021/04/15 05:48:07;;;;;;;6.03;2.00;;;27.90;35.80;;;;;;5061078;28;20056;-68
2021/04/15 05:50:48;;;;;;;8.40;1.90;;;27.90;35.00;;;;;;5053331;28;20028;-68
2021/04/15 05:53:18;;;;;;;3.45;1.85;;;27.70;36.10;;;;;;5058960;28;20029;-70
2021/04/15 05:55:50;;;;;;;7.80;1.88;;;27.40;36.60;;;;;;5059398;28;20249;-74
2021/04/15 05:58:40;;;;;;;7.22;1.70;;;27.10;38.10;;;;;;5061359;28;20024;-68
2021/04/15 06:01:29;;;;;;;5.80;2.03;;;26.80;38.60;;;;;;5058560;28;20090;-73
2021/04/15 06:04:34;;;;;;;8.80;1.95;;;26.70;39.10;;;;;;5061641;28;20032;-71
2021/04/15 06:07:05;;;;;;;7.95;2.92;;;26.50;40.10;;;;;;5061118;28;20032;-74
2021/04/15 06:09:32;;;;;;;6.38;2.20;;;26.30;37.80;;;;;;5064119;28;20047;-70
2021/04/15 06:12:21;;;;;;;7.63;1.77;;;26.30;37.10;;;;;;5066502;28;20013;-74
2021/04/15 06:14:55;;;;;;;6.65;3.58;;;26.20;37.70;;;;;;5067400;28;20031;-71
2021/04/15 06:17:30;;;;;;;4.40;1.38;;;26.70;38.60;;;;;;5067411;28;20081;-73
2021/04/15 06:20:11;;;;;;;6.13;1.77;;;27.30;36.40;;;;;;5071904;28;20031;-70
2021/04/15 06:22:43;;;;;;;5.95;1.80;;;26.90;37.40;;;;;;5070743;28;20514;-69
2021/04/15 06:25:26;;;;;;;4.88;1.67;;;26.40;37.40;;;;;;5068176;28;20491;-65
2021/04/15 06:27:55;;;;;;;5.10;1.52;;;25.90;38.60;;;;;;5069930;28;20033;-70
2021/04/15 06:30:40;;;;;;;4.20;1.52;;;26.00;38.00;;;;;;5069642;28;20636;-71
2021/04/15 06:33:12;;;;;;;5.13;1.77;;;26.50;37.10;;;;;;5048931;28;20062;-68
2021/04/15 06:35:43;;;;;;;7.97;1.87;;;27.30;36.60;;;;;;5070019;28;20025;-66
2021/04/15 06:38:16;;;;;;;5.35;1.40;;;27.60;35.80;;;;;;5071126;28;20024;-67
2021/04/15 06:41:19;;;;;;;4.97;1.50;;;27.60;34.40;;;;;;5060733;28;20418;-70
2021/04/15 06:44:11;;;;;;;8.30;1.73;;;27.00;36.20;;;;;;5002887;28;20051;-68
2021/04/15 06:47:12;;;;;;;6.80;1.40;;;26.50;36.50;;;;;;5070570;28;20083;-68
2021/04/15 06:50:06;;;;;;;5.03;1.75;;;26.00;37.80;;;;;;5070826;28;20086;-69
2021/04/15 06:52:37;;;;;;;6.80;1.48;;;25.50;38.70;;;;;;5072161;28;20020;-72
2021/04/15 06:55:34;;;;;;;6.97;1.92;;;25.20;39.60;;;;;;5054234;28;20457;-68
2021/04/15 06:58:11;;;;;;;4.93;1.60;;;24.90;41.10;;;;;;5069039;28;20025;-68
2021/04/15 07:01:13;;;;;;;6.03;1.60;;;24.70;40.90;;;;;;5066911;28;20751;-68
2021/04/15 07:04:05;;;;;;;4.90;1.38;;;24.50;40.50;;;;;;5071230;28;20090;-69
2021/04/15 07:07:03;;;;;;;7.20;1.50;;;24.20;40.80;;;;;;5073647;28;20109;-67
2021/04/15 07:09:30;;;;;;;13.45;2.30;;;23.90;42.00;;;;;;5075544;28;20059;-68
2021/04/15 07:12:21;;;;;;;6.13;1.67;;;23.80;41.60;;;;;;5073705;28;20028;-66
2021/04/15 07:15:09;;;;;;;8.55;2.28;;;23.60;42.80;;;;;;5074932;28;20056;-68
2021/04/15 07:18:15;;;;;;;12.02;2.40;;;23.40;43.80;;;;;;5069801;28;20044;-67
2021/04/15 07:21:06;;;;;;;11.70;2.30;;;23.30;44.80;;;;;;5071820;28;20036;-68
2021/04/15 07:24:18;;;;;;;10.20;2.38;;;23.00;44.90;;;;;;5069764;28;20033;-67
2021/04/15 07:27:05;;;;;;;11.30;2.20;;;22.80;45.00;;;;;;5024324;28;20071;-67
2021/04/15 07:30:00;;;;;;;10.43;2.35;;;22.50;45.40;;;;;;5049938;28;20066;-68
2021/04/15 07:32:39;;;;;;;13.35;2.72;;;22.40;45.90;;;;;;5067798;28;20021;-68
2021/04/15 07:35:43;;;;;;;12.05;2.85;;;22.30;45.70;;;;;;5065704;28;20083;-72
2021/04/15 07:38:22;;;;;;;14.07;2.42;;;22.10;46.10;;;;;;5072200;28;20861;-71
2021/04/15 07:41:16;;;;;;;8.18;2.10;;;22.00;46.50;;;;;;5046087;28;20032;-71
2021/04/15 07:43:59;;;;;;;13.40;2.17;;;22.10;46.10;;;;;;5065396;28;20528;-68
2021/04/15 07:46:29;;;;;;;;;;;21.90;46.40;;;;;;5046681;28;20060;-68
2021/04/15 07:49:35;;;;;;;18.60;3.42;;;21.80;46.80;;;;;;5051696;28;20528;-72
2021/04/15 07:52:07;;;;;;;23.58;4.40;;;21.60;47.50;;;;;;5028670;28;20033;-69
2021/04/15 07:54:53;;;;;;;10.63;2.85;;;21.50;48.20;;;;;;5046306;28;20025;-68
2021/04/15 07:57:38;;;;;;;21.10;4.05;;;21.50;46.90;;;;;;5051322;28;20017;-67
2021/04/15 08:00:24;;;;;;;17.48;3.15;;;21.40;48.40;;;;;;5050240;28;20411;-69
2021/04/15 08:03:28;;;;;;;23.30;3.13;;;21.20;49.10;;;;;;5048346;28;20101;-66
2021/04/15 08:06:27;;;;;;;10.55;2.75;;;21.20;49.50;;;;;;5047693;28;20557;-68
2021/04/15 08:09:14;;;;;;;19.88;3.88;;;21.00;48.80;;;;;;5052392;28;20090;-67
2021/04/15 08:12:03;;;;;;;23.13;4.00;;;20.90;49.50;;;;;;5046456;28;20471;-65
2021/04/15 08:15:02;;;;;;;32.00;4.47;;;20.70;49.70;;;;;;5046862;28;20025;-70
2021/04/15 08:17:56;;;;;;;24.80;3.80;;;20.60;50.10;;;;;;5046126;28;20466;-67
2021/04/15 08:20:42;;;;;;;24.33;4.65;;;20.40;50.70;;;;;;5049116;28;20618;-69
2021/04/15 08:23:17;;;;;;;28.00;4.93;;;20.40;51.10;;;;;;5045849;28;20024;-70
2021/04/15 08:26:00;;;;;;;25.55;4.22;;;20.30;51.60;;;;;;5046494;28;20033;-66
2021/04/15 08:28:37;;;;;;;24.23;3.65;;;20.20;51.50;;;;;;5047930;28;20033;-67
2021/04/15 08:31:10;;;;;;;19.98;3.35;;;20.10;52.40;;;;;;5043506;28;20454;-66
2021/04/15 08:33:59;;;;;;;17.10;3.22;;;20.00;52.80;;;;;;5044245;28;20109;-70
2021/04/15 08:37:03;;;;;;;9.38;2.47;;;20.00;52.70;;;;;;5046286;28;20042;-67
2021/04/15 08:39:54;;;;;;;13.98;9.93;;;19.90;53.00;;;;;;5045253;28;20074;-66
2021/04/15 08:42:39;;;;;;;11.55;2.65;;;20.00;52.80;;;;;;5043605;28;20546;-67
2021/04/15 08:45:23;;;;;;;12.98;2.15;;;20.00;52.40;;;;;;5048913;28;20689;-65
2021/04/15 08:48:05;;;;;;;12.88;3.25;;;20.00;51.00;;;;;;5041520;28;20044;-67
2021/04/15 08:50:48;;;;;;;14.43;4.05;;;20.10;50.90;;;;;;5048619;28;20037;-68
2021/04/15 08:53:42;;;;;;;19.33;5.07;;;20.10;50.20;;;;;;5045754;28;20028;-67
2021/04/15 08:56:30;;;;;;;12.85;2.85;;;20.20;49.90;;;;;;5043069;28;20028;-71
2021/04/15 08:59:12;;;;;;;8.50;2.05;;;20.20;50.00;;;;;;5047632;28;20116;-69
2021/04/15 09:02:04;;;;;;;13.90;2.65;;;20.20;50.00;;;;;;5043070;28;20029;-70
2021/04/15 09:04:58;;;;;;;12.75;2.33;;;20.20;50.20;;;;;;5047475;28;20033;-66
2021/04/15 09:07:38;;;;;;;16.77;3.03;;;20.10;50.30;;;;;;5043663;28;20031;-68
2021/04/15 09:10:32;;;;;;;18.83;4.25;;;20.10;50.90;;;;;;5049560;28;20475;-72
2021/04/15 09:13:20;;;;;;;16.58;3.28;;;20.10;50.10;;;;;;5049700;28;20075;-69
2021/04/15 09:16:18;;;;;;;14.15;2.80;;;20.30;49.30;;;;;;5040885;28;20432;-64
2021/04/15 09:18:54;;;;;;;10.38;2.30;;;20.30;49.30;;;;;;5042495;28;20136;-64
2021/04/15 09:21:58;;;;;;;11.13;2.40;;;20.40;47.90;;;;;;5043892;28;20020;-65
2021/04/15 09:24:57;;;;;;;6.28;2.17;;;20.60;47.20;;;;;;5046965;28;20016;-68
2021/04/15 09:27:50;;;;;;;7.28;2.20;;;20.50;47.70;;;;;;5047582;28;20524;-66
2021/04/15 09:30:39;;;;;;;7.43;2.13;;;20.50;46.80;;;;;;5004944;28;20049;-65
2021/04/15 09:34:00;;;;;;;10.70;2.40;;;20.50;47.10;;;;;;5045291;28;20033;-71
2021/04/15 09:36:47;;;;;;;7.38;1.55;;;20.50;46.90;;;;;;4977871;28;20053;-69
2021/04/15 09:39:44;;;;;;;7.43;1.95;;;20.40;46.90;;;;;;4988288;28;20053;-67
2021/04/15 09:42:47;;;;;;;13.07;2.92;;;20.40;46.60;;;;;;5035206;28;20037;-65
2021/04/15 09:45:36;;;;;;;13.90;3.75;;;20.50;46.30;;;;;;5040986;28;20049;-65
2021/04/15 09:48:10;;;;;;;10.82;3.13;;;20.40;46.60;;;;;;5046859;28;20530;-70
2021/04/15 09:51:04;;;;;;;15.93;2.90;;;20.30;46.80;;;;;;5038523;28;20894;-64
2021/04/15 09:53:47;;;;;;;16.80;3.13;;;20.30;47.40;;;;;;5036476;28;20028;-69
2021/04/15 09:56:52;;;;;;;8.48;2.63;;;20.20;47.40;;;;;;5041334;28;20025;-68
2021/04/15 09:59:28;;;;;;;16.25;2.55;;;20.20;47.40;;;;;;5048492;28;20027;-66
2021/04/15 10:02:37;;;;;;;8.45;1.92;;;20.20;47.20;;;;;;5040689;28;20129;-70
2021/04/15 10:05:30;;;;;;;11.45;2.20;;;20.10;47.40;;;;;;4982650;28;20062;-62
2021/04/15 10:08:05;;;;;;;5.35;1.65;;;20.10;46.90;;;;;;5042520;28;20049;-64
2021/04/15 10:10:57;;;;;;;13.50;2.42;;;20.10;47.00;;;;;;5040731;28;20439;-66
2021/04/15 10:13:32;;;;;;;10.75;2.05;;;20.00;47.40;;;;;;5041009;28;20028;-67
2021/04/15 10:16:18;;;;;;;10.18;2.50;;;19.80;47.80;;;;;;5039079;28;20878;-64
2021/04/15 10:19:20;;;;;;;11.00;2.13;;;19.90;48.00;;;;;;5040696;28;20090;-64
2021/04/15 10:21:59;;;;;;;12.73;2.80;;;19.80;48.30;;;;;;5043477;28;20113;-70
2021/04/15 10:24:50;;;;;;;12.90;2.70;;;19.70;48.20;;;;;;5046242;28;20032;-66
2021/04/15 10:27:34;;;;;;;8.55;1.80;;;19.70;48.30;;;;;;5044398;28;20024;-65
2021/04/15 10:30:23;;;;;;;6.85;1.77;;;19.70;48.30;;;;;;5038696;28;20082;-66
2021/04/15 10:33:03;;;;;;;11.50;2.03;;;19.70;48.60;;;;;;5042074;28;20136;-66
2021/04/15 10:35:33;;;;;;;11.75;2.10;;;19.60;48.60;;;;;;5045226;28;20024;-66
2021/04/15 10:38:29;;;;;;;9.05;2.15;;;19.60;48.60;;;;;;5042279;28;20466;-63
2021/04/15 10:41:16;;;;;;;8.77;1.65;;;19.50;49.40;;;;;;5038182;28;20438;-65
2021/04/15 10:43:53;;;;;;;8.98;2.03;;;19.40;49.30;;;;;;5039585;28;20083;-64
2021/04/15 10:46:35;;;;;;;7.65;2.13;;;19.30;49.40;;;;;;5055648;28;20056;-63
2021/04/15 10:49:20;;;;;;;9.73;1.92;;;19.30;49.80;;;;;;5051153;28;20044;-63
2021/04/15 10:52:20;;;;;;;7.35;2.22;;;19.30;49.30;;;;;;5055793;28;20124;-66
2021/04/15 10:54:47;;;;;;;19.60;3.38;;;19.30;49.50;;;;;;5055629;28;20233;-67
2021/04/15 10:57:15;;;;;;;9.70;2.47;;;19.30;49.20;;;;;;5059324;28;20054;-64
2021/04/15 10:59:44;;;;;;;11.68;2.75;;;19.20;49.40;;;;;;5056898;28;20363;-65
2021/04/15 11:03:03;;;;;;;14.98;2.83;;;19.20;49.20;;;;;;5057939;28;20334;-63
2021/04/15 11:05:44;;;;;;;11.25;2.40;;;19.30;48.70;;;;;;5039930;28;20047;-66
2021/04/15 11:08:29;;;;;;;12.45;2.75;;;19.40;48.60;;;;;;5057445;28;20047;-62
2021/04/15 11:11:24;;;;;;;11.25;2.95;;;19.40;48.50;;;;;;5053822;28;20440;-65
2021/04/15 11:14:12;;;;;;;10.38;2.67;;;19.40;48.50;;;;;;5051276;28;20060;-67
2021/04/15 11:16:39;;;;;;;13.65;2.65;;;19.30;48.60;;;;;;5051725;28;20102;-61
2021/04/15 11:19:11;;;;;;;13.63;3.63;;;19.30;48.70;;;;;;5056669;28;20043;-66
2021/04/15 11:21:40;;;;;;;16.77;3.50;;;19.30;48.80;;;;;;5055586;28;20138;-64
2021/04/15 11:24:37;;;;;;;8.77;2.38;;;19.20;48.90;;;;;;5052305;28;20029;-62
2021/04/15 11:27:06;;;;;;;14.95;2.97;;;19.20;48.70;;;;;;5043595;28;20080;-65
2021/04/15 11:29:44;;;;;;;26.15;5.00;;;19.20;49.00;;;;;;5051880;28;20052;-63
2021/04/15 11:32:38;;;;;;;15.68;3.42;;;19.20;49.00;;;;;;5041308;28;20444;-64
2021/04/15 11:35:16;;;;;;;23.30;4.45;;;19.20;48.90;;;;;;5050487;28;20024;-67
2021/04/15 11:37:46;;;;;;;22.85;3.42;;;19.10;48.90;;;;;;5051854;28;20021;-64
2021/04/15 11:40:24;;;;;;;7.60;2.75;;;19.10;48.80;;;;;;5046687;28;20051;-63
2021/04/15 11:42:59;;;;;;;8.88;4.50;;;19.10;48.70;;;;;;5058428;28;20052;-67
2021/04/15 11:45:34;;;;;;;8.15;2.85;;;19.10;48.90;;;;;;5031246;28;20029;-68
2021/04/15 11:48:28;;;;;;;4.95;1.77;;;19.00;48.80;;;;;;5043913;28;20333;-68
2021/04/15 11:51:16;;;;;;;5.55;2.42;;;19.00;48.90;;;;;;5065167;28;20698;-65
2021/04/15 11:53:53;;;;;;;6.80;1.90;;;18.80;49.40;;;;;;5054985;28;20047;-64
2021/04/15 11:56:31;;;;;;;8.63;2.55;;;18.90;49.00;;;;;;5065077;28;20025;-64
2021/04/15 11:59:18;;;;;;;3.85;2.15;;;18.80;49.10;;;;;;5058860;28;20363;-65
2021/04/15 12:01:46;;;;;;;4.82;1.98;;;18.90;48.70;;;;;;5067767;28;20040;-64
2021/04/15 12:04:29;;;;;;;12.43;2.67;;;18.90;49.00;;;;;;5059953;28;20034;-68
2021/04/15 12:07:22;;;;;;;8.98;2.45;;;18.90;49.10;;;;;;5063430;28;20082;-65
2021/04/15 12:09:51;;;;;;;5.47;2.55;;;18.80;49.10;;;;;;5062697;28;20048;-68
2021/04/15 12:12:34;;;;;;;8.68;2.53;;;18.70;49.20;;;;;;5065740;28;20058;-63
2021/04/15 12:15:03;;;;;;;8.43;3.13;;;18.70;49.20;;;;;;5061837;28;20144;-65
2021/04/15 12:17:49;;;;;;;8.27;3.08;;;18.70;49.40;;;;;;5060436;28;20090;-65
2021/04/15 12:20:44;;;;;;;12.05;3.88;;;18.60;50.00;;;;;;5054840;28;20039;-67
2021/04/15 12:23:35;;;;;;;15.63;4.05;;;18.50;50.20;;;;;;5042913;28;20025;-67
2021/04/15 12:26:10;;;;;;;19.27;4.28;;;18.60;50.00;;;;;;5065374;28;20089;-66
2021/04/15 12:29:05;;;;;;;16.65;3.80;;;18.70;49.80;;;;;;5064436;28;20398;-67
2021/04/15 12:32:02;;;;;;;13.18;4.00;;;18.60;49.90;;;;;;5059159;28;20040;-68
2021/04/15 12:34:55;;;;;;;13.70;3.75;;;18.60;50.00;;;;;;5059512;28;20403;-66
2021/04/15 12:37:31;;;;;;;14.05;4.53;;;18.50;49.90;;;;;;5074723;28;20149;-64
2021/04/15 12:40:07;;;;;;;9.10;3.25;;;18.50;50.20;;;;;;5069437;28;20052;-69
2021/04/15 12:42:37;;;;;;;7.25;2.70;;;18.50;50.10;;;;;;5070020;28;20107;-66
2021/04/15 12:45:10;;;;;;;6.88;2.90;;;18.50;50.00;;;;;;5070708;28;20512;-64
2021/04/15 12:47:41;;;;;;;18.88;5.30;;;18.60;50.00;;;;;;5070352;28;20075;-69
2021/04/15 12:50:10;;;;;;;7.80;4.45;;;18.50;50.80;;;;;;5073267;28;20118;-66
2021/04/15 12:52:37;;;;;;;9.05;3.72;;;18.40;50.80;;;;;;5067104;28;20074;-66
2021/04/15 12:55:10;;;;;;;4.55;3.03;;;18.30;50.90;;;;;;5053214;28;20020;-65
2021/04/15 12:57:38;;;;;;;8.40;2.42;;;18.30;50.80;;;;;;5068111;28;20017;-68
2021/04/15 13:00:14;;;;;;;8.95;2.70;;;18.20;51.20;;;;;;5074361;28;20043;-68
2021/04/15 13:02:41;;;;;;;6.00;2.88;;;18.10;51.20;;;;;;5071653;28;20063;-66
2021/04/15 13:05:14;;;;;;;7.97;2.70;;;18.00;51.80;;;;;;5071106;28;20162;-67
2021/04/15 13:07:42;;;;;;;;;;;17.90;52.10;;;;;;5070933;28;20032;-69
2021/04/15 13:10:16;;;;;;;6.75;3.22;;;17.70;52.60;;;;;;5069849;28;20341;-67
2021/04/15 13:12:49;;;;;;;9.13;3.40;;;17.70;52.70;;;;;;5070769;28;20024;-68
2021/04/15 13:15:25;;;;;;;17.48;3.97;;;17.70;52.80;;;;;;5069046;28;20290;-67
2021/04/15 13:18:03;;;;;;;15.60;4.97;;;17.70;53.00;;;;;;5067328;28;20024;-66
2021/04/15 13:20:30;;;;;;;14.38;4.38;;;17.70;53.20;;;;;;5073137;28;20029;-66
2021/04/15 13:23:09;;;;;;;12.43;3.35;;;17.70;53.00;;;;;;5068689;28;20458;-69
2021/04/15 13:25:52;;;;;;;9.02;3.13;;;17.70;53.50;;;;;;5066567;28;20110;-65
2021/04/15 13:28:25;;;;;;;7.70;3.22;;;17.70;53.50;;;;;;5074076;28;20028;-65
2021/04/15 13:30:59;;;;;;;6.40;2.78;;;17.60;53.70;;;;;;5073220;28;20040;-67
2021/04/15 13:34:00;;;;;;;12.50;3.40;;;17.50;53.70;;;;;;5068445;28;20621;-66
2021/04/15 13:36:28;;;;;;;5.70;3.38;;;17.50;53.60;;;;;;5065817;28;20462;-69
2021/04/15 13:38:59;;;;;;;7.78;3.08;;;17.50;53.70;;;;;;5069114;28;20016;-67
2021/04/15 13:41:30;;;;;;;8.10;3.15;;;17.50;53.80;;;;;;5071107;28;20048;-69
2021/04/15 13:44:00;;;;;;;6.90;2.83;;;17.40;53.80;;;;;;5068021;28;20024;-67
2021/04/15 13:46:31;;;;;;;12.68;3.53;;;17.50;53.90;;;;;;5070107;28;20052;-69
2021/04/15 13:49:28;;;;;;;5.90;2.80;;;17.40;54.20;;;;;;5071169;28;20561;-65
2021/04/15 13:52:27;;;;;;;9.07;3.47;;;17.40;54.40;;;;;;5066706;28;20054;-65
2021/04/15 13:54:55;;;;;;;8.95;3.88;;;17.30;54.80;;;;;;5070604;28;20049;-64